Time,TemperatureF,DewpointF,PressureIn,WindDirection,WindDirectionDegrees,WindSpeedMPH,WindSpeedGustMPH,Humidity,HourlyPrecipIn,Conditions,Clouds,dailyrainin,SoftwareType,DateUTC
2013-02-03 00:02:00,6.0,2.0,-100.00,NW,325,5.0,9.0,85,0.00,,,-99.99,,2013-02-03 06:02:00,
2013-02-03 00:11:00,6.0,2.0,-100.00,NW,325,5.0,9.0,85,0.00,,,-99.99,,2013-02-03 06:11:00,
2013-02-03 00:21:00,5.0,2.0,-100.00,NW,305,7.0,9.0,85,0.00,,,-99.99,,2013-02-03 06:21:00,
2013-02-03 00:32:00,5.0,2.0,-100.00,WNW,300,6.0,9.0,85,0.00,,,-99.99,,2013-02-03 06:32:00,
2013-02-03 00:42:00,4.0,1.0,-100.00,WNW,300,4.0,9.0,86,0.00,,,-99.99,,2013-02-03 06:42:00,
2013-02-03 00:52:00,4.0,1.0,-100.00,WNW,300,4.0,9.0,86,0.00,,,-99.99,,2013-02-03 06:52:00,
2013-02-03 01:01:00,4.0,0.0,-100.00,WNW,295,6.0,7.0,87,0.00,,,-99.99,,2013-02-03 07:01:00,
2013-02-03 01:11:00,4.0,0.0,-100.00,WNW,295,6.0,7.0,87,0.00,,,-99.99,,2013-02-03 07:11:00,
2013-02-03 01:21:00,2.0,0.0,-100.00,WNW,300,3.0,6.0,87,0.00,,,-99.99,,2013-02-03 07:21:00,
2013-02-03 01:31:00,2.0,0.0,-100.00,WNW,300,4.0,7.0,88,0.00,,,-99.99,,2013-02-03 07:31:00,
2013-02-03 01:42:00,2.0,0.0,-100.00,West,270,5.0,7.0,89,0.00,,,-99.99,,2013-02-03 07:42:00,
2013-02-03 01:52:00,2.0,0.0,-100.00,West,270,5.0,7.0,89,0.00,,,-99.99,,2013-02-03 07:52:00,
2013-02-03 02:01:00,2.0,0.0,-100.00,West,280,6.0,9.0,89,0.00,,,-99.99,,2013-02-03 08:01:00,
2013-02-03 02:11:00,2.0,0.0,-100.00,West,280,6.0,9.0,89,0.00,,,-99.99,,2013-02-03 08:11:00,
2013-02-03 02:22:00,1.0,-1.0,-100.00,West,270,4.0,8.0,89,0.00,,,-99.99,,2013-02-03 08:22:00,
2013-02-03 02:32:00,1.0,-2.0,-100.00,West,265,4.0,7.0,89,0.00,,,-99.99,,2013-02-03 08:32:00,
2013-02-03 02:41:00,1.0,-1.0,-100.00,WSW,250,5.0,7.0,90,0.00,,,-99.99,,2013-02-03 08:41:00,
2013-02-03 02:52:00,1.0,-1.0,-100.00,WSW,250,5.0,7.0,90,0.00,,,-99.99,,2013-02-03 08:52:00,
2013-02-03 03:02:00,1.0,-1.0,-100.00,West,270,3.0,7.0,91,0.00,,,-99.99,,2013-02-03 09:02:00,
2013-02-03 03:11:00,1.0,-1.0,-100.00,West,270,3.0,7.0,91,0.00,,,-99.99,,2013-02-03 09:11:00,
2013-02-03 03:21:00,0.0,-2.0,-100.00,WNW,285,3.0,6.0,91,0.00,,,-99.99,,2013-02-03 09:21:00,
2013-02-03 03:31:00,0.0,-2.0,-100.00,West,270,4.0,6.0,91,0.00,,,-99.99,,2013-02-03 09:31:00,
2013-02-03 03:42:00,0.0,-2.0,-100.00,West,275,4.0,6.0,92,0.00,,,-99.99,,2013-02-03 09:42:00,
2013-02-03 03:51:00,0.0,-2.0,-100.00,West,275,4.0,6.0,92,0.00,,,-99.99,,2013-02-03 09:51:00,
2013-02-03 04:01:00,0.0,-1.0,-100.00,West,260,4.0,6.0,92,0.00,,,-99.99,,2013-02-03 10:01:00,
2013-02-03 04:11:00,0.0,-1.0,-100.00,West,260,4.0,6.0,92,0.00,,,-99.99,,2013-02-03 10:11:00,
2013-02-03 04:21:00,1.0,-1.0,-100.00,West,275,4.0,6.0,92,0.00,,,-99.99,,2013-02-03 10:21:00,
2013-02-03 04:31:00,1.0,0.0,-100.00,West,280,4.0,6.0,92,0.00,,,-99.99,,2013-02-03 10:31:00,
2013-02-03 04:42:00,3.0,1.0,-100.00,NW,310,4.0,6.0,92,0.00,,,-99.99,,2013-02-03 10:42:00,
2013-02-03 04:52:00,3.0,1.0,-100.00,NW,310,4.0,6.0,92,0.00,,,-99.99,,2013-02-03 10:52:00,
2013-02-03 05:02:00,4.0,2.0,-100.00,NW,305,5.0,7.0,92,0.00,,,-99.99,,2013-02-03 11:02:00,
2013-02-03 05:11:00,4.0,2.0,-100.00,NW,305,5.0,7.0,92,0.00,,,-99.99,,2013-02-03 11:11:00,
2013-02-03 05:22:00,6.0,4.0,-100.00,NW,320,6.0,9.0,92,0.00,,,-99.99,,2013-02-03 11:22:00,
2013-02-03 05:32:00,6.0,4.0,-100.00,NNW,330,6.0,9.0,91,0.00,,,-99.99,,2013-02-03 11:32:00,
2013-02-03 05:42:00,7.0,4.0,-100.00,NW,325,6.0,9.0,89,0.00,,,-99.99,,2013-02-03 11:42:00,
2013-02-03 05:52:00,7.0,4.0,-100.00,NW,325,6.0,9.0,89,0.00,,,-99.99,,2013-02-03 11:52:00,
2013-02-03 06:02:00,7.0,4.0,-100.00,NNW,335,4.0,9.0,89,0.00,,,-99.99,,2013-02-03 12:02:00,
2013-02-03 06:11:00,7.0,4.0,-100.00,NNW,335,4.0,9.0,89,0.00,,,-99.99,,2013-02-03 12:11:00,
2013-02-03 06:22:00,7.0,4.0,-100.00,North,350,6.0,9.0,88,0.00,,,-99.99,,2013-02-03 12:22:00,
2013-02-03 06:32:00,7.0,4.0,-100.00,NW,310,5.0,9.0,87,0.00,,,-99.99,,2013-02-03 12:32:00,
2013-02-03 06:42:00,7.0,4.0,-100.00,NNW,340,6.0,9.0,87,0.00,,,-99.99,,2013-02-03 12:42:00,
2013-02-03 06:53:00,7.0,4.0,-100.00,NNW,340,6.0,9.0,87,0.00,,,-99.99,,2013-02-03 12:53:00,
2013-02-03 07:03:00,7.0,4.0,-100.00,NNW,330,6.0,9.0,87,0.00,,,-99.99,,2013-02-03 13:03:00,
2013-02-03 07:11:00,7.0,4.0,-100.00,NNW,330,6.0,9.0,87,0.00,,,-99.99,,2013-02-03 13:11:00,
2013-02-03 07:21:00,6.0,3.0,-100.00,NW,325,6.0,9.0,86,0.00,,,-99.99,,2013-02-03 13:21:00,
2013-02-03 07:32:00,6.0,3.0,-100.00,NNW,345,6.0,9.0,86,0.00,,,-99.99,,2013-02-03 13:32:00,
2013-02-03 07:42:00,6.0,3.0,-100.00,NNW,340,6.0,9.0,86,0.00,,,-99.99,,2013-02-03 13:42:00,
2013-02-03 07:52:00,6.0,3.0,-100.00,NNW,340,6.0,9.0,86,0.00,,,-99.99,,2013-02-03 13:52:00,
2013-02-03 08:02:00,6.0,3.0,-100.00,NNW,345,4.0,9.0,86,0.00,,,-99.99,,2013-02-03 14:02:00,
2013-02-03 08:11:00,6.0,3.0,-100.00,NNW,345,4.0,9.0,86,0.00,,,-99.99,,2013-02-03 14:11:00,
2013-02-03 08:21:00,6.0,2.0,-100.00,North,350,3.0,7.0,86,0.00,,,-99.99,,2013-02-03 14:21:00,
2013-02-03 08:32:00,6.0,2.0,-100.00,NNW,345,2.0,7.0,86,0.00,,,-99.99,,2013-02-03 14:32:00,
2013-02-03 08:42:00,6.0,3.0,-100.00,North,5,3.0,6.0,86,0.00,,,-99.99,,2013-02-03 14:42:00,
2013-02-03 08:52:00,6.0,3.0,-100.00,North,5,3.0,6.0,86,0.00,,,-99.99,,2013-02-03 14:52:00,
2013-02-03 09:03:00,6.0,3.0,-100.00,NNE,30,2.0,9.0,86,0.00,,,-99.99,,2013-02-03 15:03:00,
2013-02-03 09:11:00,6.0,3.0,-100.00,NNE,30,2.0,9.0,86,0.00,,,-99.99,,2013-02-03 15:11:00,
2013-02-03 09:22:00,6.0,3.0,-100.00,NNE,25,2.0,5.0,86,0.10,,,-99.99,,2013-02-03 15:22:00,
2013-02-03 09:33:00,7.0,4.0,-100.00,North,0,2.0,6.0,86,0.04,,,-99.99,,2013-02-03 15:33:00,
2013-02-03 09:42:00,8.0,5.0,-100.00,NE,50,4.0,7.0,86,0.03,,,-99.99,,2013-02-03 15:42:00,
2013-02-03 09:51:00,8.0,5.0,-100.00,NE,50,4.0,7.0,86,0.03,,,-99.99,,2013-02-03 15:51:00,
2013-02-03 10:02:00,8.0,4.0,-100.00,NNE,25,3.0,9.0,85,0.00,,,-99.99,,2013-02-03 16:02:00,
2013-02-03 10:11:00,8.0,4.0,-100.00,NNE,25,3.0,9.0,85,0.00,,,-99.99,,2013-02-03 16:11:00,
2013-02-03 10:22:00,8.0,4.0,-100.00,NNE,25,4.0,7.0,84,0.01,,,-99.99,,2013-02-03 16:22:00,
2013-02-03 10:32:00,8.0,4.0,-100.00,NE,45,3.0,9.0,84,0.00,,,-99.99,,2013-02-03 16:32:00,
2013-02-03 10:42:00,8.0,4.0,-100.00,NNE,20,5.0,9.0,83,0.03,,,-99.99,,2013-02-03 16:42:00,
2013-02-03 10:52:00,8.0,4.0,-100.00,NNE,20,5.0,9.0,83,0.03,,,-99.99,,2013-02-03 16:52:00,
2013-02-03 11:02:00,8.0,4.0,-100.00,North,5,4.0,9.0,82,0.03,,,-99.99,,2013-02-03 17:02:00,
2013-02-03 11:11:00,8.0,4.0,-100.00,North,5,4.0,9.0,82,0.03,,,-99.99,,2013-02-03 17:11:00,
2013-02-03 11:21:00,9.0,4.0,-100.00,North,10,0.0,9.0,80,0.01,,,-99.99,,2013-02-03 17:21:00,
2013-02-03 11:32:00,9.0,4.0,-100.00,NE,50,3.0,9.0,79,0.00,,,-99.99,,2013-02-03 17:32:00,
2013-02-03 11:42:00,10.0,4.0,-100.00,NNE,30,3.0,6.0,77,0.00,,,-99.99,,2013-02-03 17:42:00,
2013-02-03 11:52:00,10.0,4.0,-100.00,NNE,30,3.0,6.0,77,0.00,,,-99.99,,2013-02-03 17:52:00,
2013-02-03 12:03:00,11.0,5.0,-100.00,NNE,25,1.0,7.0,75,0.00,,,-99.99,,2013-02-03 18:03:00,
2013-02-03 12:12:00,11.0,5.0,-100.00,NNE,25,1.0,7.0,75,0.00,,,-99.99,,2013-02-03 18:12:00,
2013-02-03 12:23:00,11.0,3.0,-100.00,NNE,30,4.0,9.0,70,0.00,,,-99.99,,2013-02-03 18:23:00,
2013-02-03 12:32:00,12.0,4.0,-100.00,NE,35,4.0,9.0,68,0.00,,,-99.99,,2013-02-03 18:32:00,
2013-02-03 12:42:00,12.0,3.0,-100.00,ENE,65,4.0,9.0,65,0.00,,,-99.99,,2013-02-03 18:42:00,
2013-02-03 12:51:00,12.0,3.0,-100.00,ENE,65,4.0,9.0,65,0.00,,,-99.99,,2013-02-03 18:51:00,
2013-02-03 13:02:00,13.0,2.0,-100.00,NE,40,3.0,8.0,63,0.00,,,-99.99,,2013-02-03 19:02:00,
2013-02-03 13:11:00,13.0,2.0,-100.00,NE,40,3.0,8.0,63,0.00,,,-99.99,,2013-02-03 19:11:00,
2013-02-03 13:22:00,12.0,1.0,-100.00,NNE,20,4.0,7.0,60,0.00,,,-99.99,,2013-02-03 19:22:00,
2013-02-03 13:32:00,11.0,0.0,-100.00,NE,50,3.0,8.0,59,0.00,,,-99.99,,2013-02-03 19:32:00,
2013-02-03 13:42:00,12.0,0.0,-100.00,NE,40,2.0,7.0,58,0.00,,,-99.99,,2013-02-03 19:42:00,
2013-02-03 13:51:00,12.0,0.0,-100.00,NE,40,2.0,7.0,58,0.00,,,-99.99,,2013-02-03 19:51:00,
2013-02-03 14:01:00,12.0,0.0,-100.00,NE,50,1.0,4.0,57,0.00,,,-99.99,,2013-02-03 20:01:00,
2013-02-03 14:12:00,12.0,0.0,-100.00,NE,50,1.0,4.0,57,0.00,,,-99.99,,2013-02-03 20:12:00,
2013-02-03 14:21:00,11.0,-1.0,-100.00,NE,45,3.0,6.0,57,0.00,,,-99.99,,2013-02-03 20:21:00,
2013-02-03 14:32:00,13.0,1.0,-100.00,NNE,25,3.0,9.0,57,0.00,,,-99.99,,2013-02-03 20:32:00,
2013-02-03 14:42:00,13.0,-1.0,-100.00,NE,40,3.0,7.0,53,0.00,,,-99.99,,2013-02-03 20:42:00,
2013-02-03 14:52:00,13.0,-1.0,-100.00,NE,40,3.0,7.0,53,0.00,,,-99.99,,2013-02-03 20:52:00,
2013-02-03 15:03:00,15.0,0.0,-100.00,NNE,25,4.0,7.0,52,0.00,,,-99.99,,2013-02-03 21:03:00,
2013-02-03 15:11:00,15.0,0.0,-100.00,NNE,25,4.0,7.0,52,0.00,,,-99.99,,2013-02-03 21:11:00,
2013-02-03 15:21:00,11.0,-3.0,-100.00,ENE,70,3.0,7.0,54,0.00,,,-99.99,,2013-02-03 21:21:00,
2013-02-03 15:32:00,11.0,-1.0,-100.00,NE,45,2.0,8.0,56,0.00,,,-99.99,,2013-02-03 21:32:00,
2013-02-03 15:42:00,13.0,0.0,-100.00,NE,45,1.0,5.0,54,0.00,,,-99.99,,2013-02-03 21:42:00,
2013-02-03 15:51:00,13.0,0.0,-100.00,NE,45,1.0,5.0,54,0.00,,,-99.99,,2013-02-03 21:51:00,
2013-02-03 16:01:00,12.0,-2.0,-100.00,NE,45,1.0,7.0,53,0.00,,,-99.99,,2013-02-03 22:01:00,
2013-02-03 16:11:00,12.0,-2.0,-100.00,NE,45,1.0,7.0,53,0.00,,,-99.99,,2013-02-03 22:11:00,
2013-02-03 16:21:00,10.0,-3.0,-100.00,ENE,70,2.0,6.0,53,0.00,,,-99.99,,2013-02-03 22:21:00,
2013-02-03 16:32:00,9.0,-4.0,-100.00,ENE,60,1.0,4.0,54,0.00,,,-99.99,,2013-02-03 22:32:00,
2013-02-03 16:42:00,8.0,-4.0,-100.00,ENE,65,1.0,5.0,56,0.00,,,-99.99,,2013-02-03 22:42:00,
2013-02-03 16:51:00,8.0,-4.0,-100.00,ENE,65,1.0,5.0,56,0.00,,,-99.99,,2013-02-03 22:51:00,
2013-02-03 17:01:00,8.0,-4.0,-100.00,East,95,1.0,4.0,57,0.00,,,-99.99,,2013-02-03 23:01:00,
2013-02-03 17:12:00,8.0,-4.0,-100.00,East,95,1.0,4.0,57,0.00,,,-99.99,,2013-02-03 23:12:00,
2013-02-03 17:22:00,7.0,-4.0,-100.00,NNE,25,2.0,4.0,60,0.00,,,-99.99,,2013-02-03 23:22:00,
2013-02-03 17:32:00,7.0,-3.0,-100.00,NE,50,1.0,4.0,61,0.00,,,-99.99,,2013-02-03 23:32:00,
2013-02-03 17:42:00,7.0,-3.0,-100.00,NE,40,2.0,7.0,63,0.17,,,-99.99,,2013-02-03 23:42:00,
2013-02-03 17:52:00,7.0,-3.0,-100.00,NE,40,2.0,7.0,63,0.17,,,-99.99,,2013-02-03 23:52:00,
2013-02-03 18:01:00,6.0,-3.0,-100.00,NE,45,3.0,6.0,64,0.06,,,-99.99,,2013-02-04 00:01:00,
2013-02-03 18:11:00,6.0,-3.0,-100.00,NE,45,3.0,6.0,64,0.06,,,-99.99,,2013-02-04 00:11:00,
2013-02-03 18:22:00,6.0,-2.0,-100.00,NNE,25,2.0,5.0,67,0.03,,,-99.99,,2013-02-04 00:22:00,
2013-02-03 18:32:00,6.0,-2.0,-100.00,NNE,30,3.0,7.0,68,0.14,,,-99.99,,2013-02-04 00:32:00,
2013-02-03 18:42:00,6.0,-2.0,-100.00,NE,40,2.0,5.0,70,0.01,,,-99.99,,2013-02-04 00:42:00,
2013-02-03 18:51:00,6.0,-2.0,-100.00,NE,40,2.0,5.0,70,0.01,,,-99.99,,2013-02-04 00:51:00,
2013-02-03 19:01:00,6.0,-2.0,-100.00,NNE,15,2.0,7.0,71,0.01,,,-99.99,,2013-02-04 01:01:00,
2013-02-03 19:11:00,6.0,-2.0,-100.00,NNE,15,2.0,7.0,71,0.01,,,-99.99,,2013-02-04 01:11:00,
2013-02-03 19:21:00,5.0,-1.0,-100.00,North,0,4.0,7.0,73,0.00,,,-99.99,,2013-02-04 01:21:00,
2013-02-03 19:31:00,5.0,-1.0,-100.00,NNE,25,4.0,7.0,74,0.00,,,-99.99,,2013-02-04 01:31:00,
2013-02-03 19:41:00,5.0,-1.0,-100.00,NNE,25,2.0,6.0,75,0.00,,,-99.99,,2013-02-04 01:41:00,
2013-02-03 19:52:00,5.0,-1.0,-100.00,NNE,25,2.0,6.0,75,0.00,,,-99.99,,2013-02-04 01:52:00,
2013-02-03 20:02:00,5.0,-1.0,-100.00,NNE,15,3.0,6.0,76,0.00,,,-99.99,,2013-02-04 02:02:00,
2013-02-03 20:11:00,5.0,-1.0,-100.00,NNE,15,3.0,6.0,76,0.00,,,-99.99,,2013-02-04 02:11:00,
2013-02-03 20:21:00,5.0,-1.0,-100.00,North,5,4.0,6.0,76,0.00,,,-99.99,,2013-02-04 02:21:00,
2013-02-03 20:31:00,4.0,-1.0,-100.00,North,350,4.0,6.0,77,0.00,,,-99.99,,2013-02-04 02:31:00,
2013-02-03 20:41:00,4.0,-1.0,-100.00,NNW,330,3.0,5.0,78,0.00,,,-99.99,,2013-02-04 02:41:00,
2013-02-03 20:52:00,4.0,-1.0,-100.00,NNW,330,3.0,5.0,78,0.00,,,-99.99,,2013-02-04 02:52:00,
2013-02-03 21:02:00,4.0,-1.0,-100.00,NNW,340,2.0,5.0,79,0.00,,,-99.99,,2013-02-04 03:02:00,
2013-02-03 21:11:00,4.0,-1.0,-100.00,NNW,340,2.0,5.0,79,0.00,,,-99.99,,2013-02-04 03:11:00,
2013-02-03 21:21:00,3.0,-2.0,-100.00,North,10,1.0,5.0,79,0.00,,,-99.99,,2013-02-04 03:21:00,
2013-02-03 21:32:00,3.0,-2.0,-100.00,North,5,1.0,4.0,79,0.00,,,-99.99,,2013-02-04 03:32:00,
2013-02-03 21:42:00,3.0,-2.0,-100.00,NNW,345,1.0,4.0,81,0.00,,,-99.99,,2013-02-04 03:42:00,
2013-02-03 21:51:00,3.0,-2.0,-100.00,NNW,345,1.0,4.0,81,0.00,,,-99.99,,2013-02-04 03:51:00,
2013-02-03 22:01:00,2.0,-2.0,-100.00,North,0,2.0,6.0,81,0.00,,,-99.99,,2013-02-04 04:01:00,
2013-02-03 22:11:00,2.0,-2.0,-100.00,North,0,2.0,6.0,81,0.00,,,-99.99,,2013-02-04 04:11:00,
2013-02-03 22:21:00,3.0,-1.0,-100.00,North,355,1.0,4.0,82,0.00,,,-99.99,,2013-02-04 04:21:00,
2013-02-03 22:32:00,3.0,-1.0,-100.00,North,0,3.0,6.0,82,0.00,,,-99.99,,2013-02-04 04:32:00,
2013-02-03 22:42:00,4.0,-1.0,-100.00,NNE,15,3.0,7.0,82,0.00,,,-99.99,,2013-02-04 04:42:00,
2013-02-03 22:52:00,4.0,-1.0,-100.00,NNE,15,3.0,7.0,82,0.00,,,-99.99,,2013-02-04 04:52:00,
2013-02-03 23:03:00,4.0,-1.0,-100.00,NNE,15,4.0,7.0,82,0.00,,,-99.99,,2013-02-04 05:03:00,
2013-02-03 23:11:00,4.0,-1.0,-100.00,NNE,15,4.0,7.0,82,0.00,,,-99.99,,2013-02-04 05:11:00,
2013-02-03 23:22:00,3.0,-1.0,-100.00,North,10,3.0,8.0,81,0.00,,,-99.99,,2013-02-04 05:22:00,
2013-02-03 23:33:00,3.0,-1.0,-100.00,NNE,20,4.0,7.0,81,0.00,,,-99.99,,2013-02-04 05:33:00,
2013-02-03 23:42:00,3.0,-1.0,-100.00,NE,35,4.0,7.0,80,0.00,,,-99.99,,2013-02-04 05:42:00,
2013-02-03 23:52:00,3.0,-1.0,-100.00,NE,35,4.0,7.0,80,0.00,,,-99.99,,2013-02-04 05:52:00,